createdAt,value
2023-03-13T00:01:34.877Z,1.64
2023-03-13T00:04:03.021Z,1.69
2023-03-13T00:06:33.317Z,1.67
2023-03-13T00:09:02.173Z,1.71
2023-03-13T00:11:30.536Z,1.74
2023-03-13T00:13:59.625Z,1.82
2023-03-13T00:16:28.723Z,1.84
2023-03-13T00:18:59.302Z,1.83
2023-03-13T00:21:29.481Z,1.72
2023-03-13T00:23:59.236Z,0.64
2023-03-13T00:26:31.254Z,1.58
2023-03-13T00:28:59.362Z,1.50
2023-03-13T00:31:29.184Z,1.25
2023-03-13T00:33:59.858Z,1.55
2023-03-13T00:36:29.685Z,1.24
2023-03-13T00:38:58.373Z,1.56
2023-03-13T00:41:28.070Z,1.54
2023-03-13T00:43:56.386Z,1.47
2023-03-13T00:46:26.451Z,1.33
2023-03-13T00:48:54.849Z,0.95
2023-03-13T00:51:26.995Z,1.29
2023-03-13T00:53:55.430Z,1.28
2023-03-13T00:56:26.014Z,1.05
2023-03-13T00:58:54.290Z,0.96
2023-03-13T01:01:24.749Z,1.04
2023-03-13T01:03:54.676Z,0.20
2023-03-13T01:06:26.308Z,1.13
2023-03-13T01:08:54.548Z,0.62
2023-03-13T01:11:24.471Z,1.13
2023-03-13T01:13:55.664Z,0.64
2023-03-13T01:16:24.614Z,1.17
2023-03-13T01:18:54.794Z,1.18
2023-03-13T01:21:27.716Z,1.09
2023-03-13T01:23:57.921Z,0.72
2023-03-13T01:26:26.521Z,0.52
2023-03-13T01:28:54.492Z,1.19
2023-03-13T01:31:24.183Z,1.07
2023-03-13T01:33:54.838Z,1.16
2023-03-13T01:36:24.526Z,1.19
2023-03-13T01:38:54.461Z,1.11
2023-03-13T01:41:23.713Z,0.84
2023-03-13T01:43:52.405Z,0.69
2023-03-13T01:46:21.756Z,0.47
2023-03-13T01:48:54.107Z,-0.02
2023-03-13T01:51:27.129Z,0.18
2023-03-13T01:54:01.342Z,0.06
2023-03-13T01:56:35.742Z,-0.05
2023-03-13T01:59:05.704Z,-0.05
2023-03-13T02:01:34.264Z,-0.09
2023-03-13T02:04:02.690Z,-0.56
2023-03-13T02:06:35.771Z,-0.23
2023-03-13T02:09:07.685Z,-0.35
2023-03-13T02:11:45.160Z,-0.39
2023-03-13T02:14:13.937Z,-0.45
2023-03-13T02:16:47.746Z,-0.49
2023-03-13T02:19:20.786Z,-0.52
2023-03-13T02:21:56.598Z,-0.53
2023-03-13T02:24:32.872Z,-0.54
2023-03-13T02:27:02.216Z,-0.57
2023-03-13T02:29:30.502Z,-0.51
2023-03-13T02:31:58.458Z,-0.85
2023-03-13T02:34:31.446Z,-0.52
2023-03-13T02:37:00.475Z,-0.44
2023-03-13T02:39:31.613Z,-0.46
2023-03-13T02:42:01.276Z,-0.42
2023-03-13T02:44:30.649Z,-0.42
2023-03-13T02:46:58.702Z,-0.73
2023-03-13T02:49:28.903Z,-0.52
2023-03-13T02:51:59.521Z,-0.81
2023-03-13T02:54:34.281Z,-0.54
2023-03-13T02:57:05.031Z,-1.03
2023-03-13T02:59:35.575Z,-0.81
2023-03-13T03:02:03.455Z,-0.24
2023-03-13T03:04:34.053Z,-0.45
2023-03-13T03:07:02.122Z,-0.17
2023-03-13T03:09:29.962Z,-0.28
2023-03-13T03:11:57.871Z,-0.44
2023-03-13T03:14:25.834Z,-0.55
2023-03-13T03:16:55.084Z,-0.46
2023-03-13T03:19:22.994Z,-0.44
2023-03-13T03:21:50.864Z,-0.47
2023-03-13T03:24:20.135Z,-0.46
2023-03-13T03:26:48.141Z,-0.36
2023-03-13T03:29:15.973Z,-0.27
2023-03-13T03:31:43.877Z,-0.44
2023-03-13T03:34:13.202Z,-0.51
2023-03-13T03:36:41.551Z,-0.39
2023-03-13T03:39:09.414Z,-0.40
2023-03-13T03:41:37.539Z,-0.52
2023-03-13T03:44:05.964Z,-0.51
2023-03-13T03:46:34.247Z,-0.41
2023-03-13T03:49:02.231Z,-0.38
2023-03-13T03:51:31.656Z,-0.65
2023-03-13T03:53:59.760Z,-0.64
2023-03-13T03:56:27.637Z,-0.84
2023-03-13T03:58:55.506Z,-0.80
2023-03-13T04:01:23.375Z,-0.67
2023-03-13T04:03:51.229Z,-0.54
2023-03-13T04:06:21.727Z,-0.54
2023-03-13T04:08:52.390Z,-0.80
2023-03-13T04:11:20.288Z,-0.76
2023-03-13T04:13:48.126Z,-0.89
2023-03-13T04:16:16.040Z,-0.86
2023-03-13T04:18:43.910Z,-0.85
2023-03-13T04:21:11.758Z,-0.89
2023-03-13T04:23:39.670Z,-0.94
2023-03-13T04:26:08.913Z,-0.91
2023-03-13T04:28:36.896Z,-0.88
2023-03-13T04:31:04.926Z,-1.23
2023-03-13T04:33:32.807Z,-0.59
2023-03-13T04:36:00.719Z,-0.67
2023-03-13T04:38:28.584Z,-0.63
2023-03-13T04:40:56.470Z,-0.54
2023-03-13T04:43:25.723Z,-0.51
2023-03-13T04:45:55.125Z,-0.85
2023-03-13T04:48:23.290Z,-0.79
2023-03-13T04:50:51.161Z,-0.35
2023-03-13T04:53:19.475Z,-0.42
2023-03-13T04:55:51.014Z,0.11
2023-03-13T04:58:18.986Z,0.50
2023-03-13T05:00:56.841Z,0.85
2023-03-13T05:06:09.971Z,1.30
2023-03-13T05:08:38.216Z,1.75
2023-03-13T05:11:06.581Z,2.18
2023-03-13T05:13:34.514Z,2.15
2023-03-13T05:16:04.100Z,2.36
2023-03-13T05:18:32.186Z,2.75
2023-03-13T05:21:00.225Z,3.07
2023-03-13T05:23:28.155Z,3.35
2023-03-13T05:25:56.301Z,3.34
2023-03-13T05:28:25.395Z,3.65
2023-03-13T05:30:53.588Z,3.68
2023-03-13T05:33:22.829Z,3.63
2023-03-13T05:35:51.266Z,3.90
2023-03-13T05:38:19.466Z,4.00
2023-03-13T05:40:47.833Z,4.45
2023-03-13T05:43:16.288Z,4.12
2023-03-13T05:45:44.291Z,3.91
2023-03-13T05:48:25.168Z,3.77
2023-03-13T05:51:04.247Z,3.89
2023-03-13T05:53:33.252Z,4.44
2023-03-13T05:56:02.502Z,4.59
2023-03-13T05:58:32.278Z,4.51
2023-03-13T06:01:01.050Z,4.48
2023-03-13T06:03:34.037Z,4.25
2023-03-13T06:06:05.492Z,4.53
2023-03-13T06:08:33.852Z,4.80
2023-03-13T06:11:02.529Z,4.65
2023-03-13T06:13:34.815Z,5.07
2023-03-13T06:16:07.540Z,5.29
2023-03-13T06:18:36.988Z,5.73
2023-03-13T06:21:12.743Z,5.59
2023-03-13T06:23:42.902Z,5.68
2023-03-13T06:26:11.029Z,5.89
2023-03-13T06:28:38.977Z,5.63
2023-03-13T06:31:08.466Z,5.66
2023-03-13T06:33:37.287Z,5.86
2023-03-13T06:36:07.583Z,5.46
2023-03-13T06:38:37.874Z,5.21
2023-03-13T06:41:09.110Z,5.75
2023-03-13T06:43:40.713Z,6.21
2023-03-13T06:46:17.177Z,6.83
2023-03-13T06:48:51.116Z,6.26
2023-03-13T06:51:23.362Z,6.70
2023-03-13T06:53:52.439Z,6.96
2023-03-13T06:56:30.027Z,6.81
2023-03-13T06:59:07.393Z,7.12
2023-03-13T07:01:46.422Z,7.66
2023-03-13T07:04:27.234Z,7.44
2023-03-13T07:07:10.458Z,7.71
2023-03-13T07:09:50.505Z,7.47
2023-03-13T07:12:21.937Z,7.14
2023-03-13T07:14:51.579Z,7.45
2023-03-13T07:17:20.256Z,7.38
2023-03-13T07:19:50.765Z,7.89
2023-03-13T07:22:27.590Z,7.58
2023-03-13T07:24:58.316Z,7.88
2023-03-13T07:27:29.693Z,6.98
2023-03-13T07:30:00.423Z,6.47
2023-03-13T07:32:34.315Z,7.51
2023-03-13T07:35:05.481Z,7.66
2023-03-13T07:37:37.047Z,8.02
2023-03-13T07:40:10.422Z,7.33
2023-03-13T07:42:41.246Z,8.43
2023-03-13T07:45:10.884Z,8.57
2023-03-13T07:47:38.788Z,8.41
2023-03-13T07:50:08.395Z,8.33
2023-03-13T07:52:39.332Z,7.88
2023-03-13T07:55:08.173Z,8.26
2023-03-13T07:57:36.947Z,9.02
2023-03-13T08:00:10.149Z,9.14
2023-03-13T08:02:41.502Z,9.03
2023-03-13T08:05:10.372Z,8.52
2023-03-13T08:07:44.375Z,8.83
2023-03-13T08:10:23.928Z,8.71
2023-03-13T08:12:57.248Z,8.78
2023-03-13T08:15:26.516Z,7.76
2023-03-13T08:18:01.898Z,7.67
2023-03-13T08:20:32.476Z,8.84
2023-03-13T08:23:01.759Z,9.61
2023-03-13T08:25:32.090Z,9.64
2023-03-13T08:28:02.314Z,10.12
2023-03-13T08:30:30.491Z,10.23
2023-03-13T08:32:59.503Z,9.58
2023-03-13T08:35:28.533Z,10.19
2023-03-13T08:37:57.261Z,9.41
2023-03-13T08:40:27.724Z,9.42
2023-03-13T08:42:57.929Z,8.89
2023-03-13T08:45:26.658Z,9.73
2023-03-13T08:47:55.415Z,9.41
2023-03-13T08:50:24.357Z,9.96
2023-03-13T08:52:52.402Z,9.98
2023-03-13T08:55:22.314Z,10.09
2023-03-13T08:57:52.918Z,10.13
2023-03-13T09:00:21.538Z,10.48
2023-03-13T09:02:49.461Z,10.42
2023-03-13T09:05:17.391Z,11.02
2023-03-13T09:07:45.305Z,11.05
2023-03-13T09:10:17.160Z,11.15
2023-03-13T09:12:47.124Z,11.66
2023-03-13T09:15:16.733Z,11.14
2023-03-13T09:17:44.647Z,11.61
2023-03-13T09:20:13.093Z,10.90
2023-03-13T09:22:41.005Z,10.77
2023-03-13T09:25:11.475Z,11.47
2023-03-13T09:27:40.572Z,11.52
2023-03-13T09:30:10.242Z,12.14
2023-03-13T09:32:39.526Z,11.47
2023-03-13T09:35:08.063Z,11.08
2023-03-13T09:37:36.155Z,10.76
2023-03-13T09:40:05.613Z,11.29
2023-03-13T09:42:41.050Z,11.82
2023-03-13T09:45:16.385Z,12.47
2023-03-13T09:47:48.266Z,12.06
2023-03-13T09:50:20.553Z,11.77
2023-03-13T09:52:52.473Z,11.75
2023-03-13T09:55:22.448Z,11.95
2023-03-13T09:57:54.305Z,12.13
2023-03-13T10:00:27.504Z,12.09
2023-03-13T10:03:01.700Z,12.19
2023-03-13T10:05:31.601Z,11.69
2023-03-13T10:08:11.386Z,11.56
2023-03-13T10:10:44.824Z,12.41
2023-03-13T10:13:21.317Z,12.81
2023-03-13T10:15:55.297Z,13.05
2023-03-13T10:18:26.022Z,12.66
2023-03-13T10:20:58.145Z,12.43
2023-03-13T10:23:36.654Z,12.54
2023-03-13T10:26:04.595Z,11.80
2023-03-13T10:28:32.488Z,11.96
2023-03-13T10:31:09.485Z,12.62
2023-03-13T10:33:39.256Z,12.76
2023-03-13T10:36:09.436Z,13.00
2023-03-13T10:38:47.682Z,13.17
2023-03-13T10:41:24.896Z,12.69
2023-03-13T10:43:54.215Z,12.46
2023-03-13T10:46:30.112Z,12.60
2023-03-13T10:49:03.376Z,12.40
2023-03-13T10:51:37.753Z,12.35
2023-03-13T10:54:16.224Z,12.20
2023-03-13T10:56:44.384Z,11.86
2023-03-13T10:59:25.117Z,12.23
2023-03-13T11:01:54.194Z,12.25
2023-03-13T11:04:32.146Z,12.58
2023-03-13T11:07:03.818Z,12.53
2023-03-13T11:09:32.330Z,13.23
2023-03-13T11:12:06.262Z,12.48
2023-03-13T11:14:35.120Z,13.41
2023-03-13T11:17:11.369Z,13.93
2023-03-13T11:19:59.660Z,14.16
2023-03-13T11:22:47.701Z,13.68
2023-03-13T11:25:32.783Z,13.28
2023-03-13T11:28:24.520Z,12.66
2023-03-13T11:31:04.792Z,12.77
2023-03-13T11:33:43.068Z,13.23
2023-03-13T11:36:25.599Z,13.68
2023-03-13T11:38:56.890Z,13.85
2023-03-13T11:41:53.431Z,14.05
2023-03-13T11:44:30.076Z,14.29
2023-03-13T11:47:13.678Z,13.94
2023-03-13T11:49:53.241Z,14.34
2023-03-13T11:52:36.651Z,14.27
2023-03-13T11:55:24.279Z,14.18
2023-03-13T11:58:06.158Z,15.05
2023-03-13T12:00:39.095Z,15.46
2023-03-13T12:03:17.535Z,15.15
2023-03-13T12:05:48.669Z,14.68
2023-03-13T12:08:27.492Z,15.06
2023-03-13T12:11:07.445Z,14.80
2023-03-13T12:13:40.447Z,14.78
2023-03-13T12:16:13.409Z,14.75
2023-03-13T12:18:43.565Z,15.00
2023-03-13T12:21:19.412Z,15.21
2023-03-13T12:23:57.389Z,15.53
2023-03-13T12:26:35.992Z,15.36
2023-03-13T12:29:13.018Z,14.57
2023-03-13T12:31:44.998Z,14.51
2023-03-13T12:34:19.934Z,15.11
2023-03-13T12:36:53.008Z,14.74
2023-03-13T12:39:31.979Z,14.50
2023-03-13T12:42:14.769Z,14.78
2023-03-13T12:44:42.730Z,14.58
2023-03-13T12:47:18.571Z,15.00
2023-03-13T12:50:20.393Z,15.42
2023-03-13T12:53:06.408Z,14.88
2023-03-13T12:56:13.949Z,14.40
2023-03-13T12:58:48.899Z,15.07
2023-03-13T13:01:27.470Z,14.94
2023-03-13T13:03:59.077Z,14.85
2023-03-13T13:06:29.791Z,14.12
2023-03-13T13:09:09.438Z,14.50
2023-03-13T13:11:57.240Z,14.36
2023-03-13T13:15:06.806Z,13.90
2023-03-13T13:18:04.522Z,14.13
2023-03-13T13:20:45.497Z,13.88
2023-03-13T13:23:37.057Z,13.31
2023-03-13T13:26:47.763Z,13.25
2023-03-13T13:29:58.335Z,13.09
2023-03-13T13:32:42.211Z,12.81
2023-03-13T13:35:31.639Z,12.66
2023-03-13T13:38:28.563Z,12.45
2023-03-13T13:41:02.095Z,12.60
2023-03-13T13:43:33.811Z,12.10
2023-03-13T13:46:09.160Z,11.90
2023-03-13T13:48:43.313Z,11.94
2023-03-13T13:51:35.703Z,12.22
2023-03-13T13:54:07.876Z,12.45
2023-03-13T13:56:48.201Z,12.62
2023-03-13T13:59:41.191Z,11.98
2023-03-13T14:02:27.471Z,12.28
2023-03-13T14:05:08.781Z,12.45
2023-03-13T14:07:49.532Z,12.11
2023-03-13T14:10:28.103Z,12.32
2023-03-13T14:12:57.673Z,12.22
2023-03-13T14:15:27.482Z,12.22
2023-03-13T14:18:01.985Z,12.15
2023-03-13T14:20:39.253Z,11.80
2023-03-13T14:23:10.048Z,10.95
2023-03-13T14:25:46.667Z,12.08
2023-03-13T14:28:27.466Z,11.90
2023-03-13T14:30:58.326Z,11.88
2023-03-13T14:33:32.616Z,12.32
2023-03-13T14:36:06.786Z,12.05
2023-03-13T14:38:44.094Z,12.15
2023-03-13T14:41:43.760Z,11.60
2023-03-13T14:44:18.667Z,11.23
2023-03-13T14:46:47.232Z,12.09
2023-03-13T14:49:19.179Z,11.82
2023-03-13T14:52:01.726Z,11.69
2023-03-13T14:54:32.760Z,11.86
2023-03-13T14:57:06.254Z,11.79
2023-03-13T14:59:36.815Z,11.59
2023-03-13T15:02:15.825Z,11.95
2023-03-13T15:04:56.203Z,10.94
2023-03-13T15:07:30.213Z,11.69
2023-03-13T15:09:58.337Z,11.52
2023-03-13T15:12:26.345Z,11.70
2023-03-13T15:14:54.318Z,11.66
2023-03-13T15:17:27.741Z,11.77
2023-03-13T15:19:57.896Z,11.71
2023-03-13T15:22:38.887Z,11.76
2023-03-13T15:25:21.143Z,11.66
2023-03-13T15:27:50.197Z,11.61
2023-03-13T15:30:19.861Z,10.36
2023-03-13T15:32:50.588Z,11.51
2023-03-13T15:35:28.485Z,10.74
2023-03-13T15:37:59.190Z,11.61
2023-03-13T15:40:27.996Z,11.66
2023-03-13T15:42:56.673Z,11.58
2023-03-13T15:45:24.592Z,11.52
2023-03-13T15:47:53.000Z,11.51
2023-03-13T15:50:22.596Z,11.39
2023-03-13T15:52:50.776Z,11.43
2023-03-13T15:55:22.438Z,11.41
2023-03-13T15:57:52.824Z,11.37
2023-03-13T16:00:22.938Z,11.37
2023-03-13T16:02:51.115Z,11.34
2023-03-13T16:05:19.560Z,11.15
2023-03-13T16:07:48.981Z,11.15
2023-03-13T16:10:26.194Z,10.95
2023-03-13T16:12:56.844Z,11.03
2023-03-13T16:15:25.337Z,10.98
2023-03-13T16:17:56.561Z,10.94
2023-03-13T16:20:31.178Z,10.96
2023-03-13T16:23:06.642Z,10.92
2023-03-13T16:25:38.618Z,10.82
2023-03-13T16:28:16.603Z,10.69
2023-03-13T16:30:47.864Z,10.58
2023-03-13T16:33:18.670Z,10.49
2023-03-13T16:35:47.747Z,10.07
2023-03-13T16:38:20.742Z,10.47
2023-03-13T16:40:54.328Z,9.83
2023-03-13T16:43:25.496Z,10.15
2023-03-13T16:45:55.811Z,10.36
2023-03-13T16:48:25.039Z,10.33
2023-03-13T16:50:53.776Z,10.27
2023-03-13T16:53:22.725Z,10.07
2023-03-13T16:55:53.690Z,10.06
2023-03-13T16:58:24.834Z,10.06
2023-03-13T17:01:04.652Z,10.04
2023-03-13T17:03:34.327Z,9.95
2023-03-13T17:06:17.831Z,9.86
2023-03-13T17:08:51.632Z,9.71
2023-03-13T17:11:24.114Z,9.63
2023-03-13T17:13:53.710Z,9.50
2023-03-13T17:16:24.537Z,9.58
2023-03-13T17:18:54.564Z,9.32
2023-03-13T17:21:25.586Z,9.52
2023-03-13T17:23:54.542Z,9.61
2023-03-13T17:26:26.127Z,9.48
2023-03-13T17:28:57.826Z,9.41
2023-03-13T17:31:28.239Z,9.38
2023-03-13T17:33:56.326Z,9.25
2023-03-13T17:36:27.253Z,9.32
2023-03-13T17:39:00.421Z,9.26
2023-03-13T17:41:31.914Z,8.92
2023-03-13T17:44:00.346Z,9.12
2023-03-13T17:46:34.215Z,9.05
2023-03-13T17:49:02.687Z,8.94
2023-03-13T17:51:35.295Z,8.76
2023-03-13T17:54:04.628Z,8.78
2023-03-13T17:56:38.848Z,8.31
2023-03-13T17:59:13.249Z,8.64
2023-03-13T18:01:43.146Z,8.60
2023-03-13T18:04:11.870Z,8.58
2023-03-13T18:06:42.927Z,8.49
2023-03-13T18:09:15.376Z,8.42
2023-03-13T18:11:45.596Z,8.00
2023-03-13T18:14:14.845Z,8.07
2023-03-13T18:16:48.223Z,8.06
2023-03-13T18:19:18.617Z,7.89
2023-03-13T18:21:48.474Z,7.89
2023-03-13T18:24:20.363Z,7.82
2023-03-13T18:26:50.713Z,7.79
2023-03-13T18:29:26.911Z,7.74
2023-03-13T18:31:56.321Z,7.70
2023-03-13T18:34:25.875Z,7.53
2023-03-13T18:36:54.688Z,7.48
2023-03-13T18:39:23.504Z,7.37
2023-03-13T18:41:53.145Z,7.16
2023-03-13T18:44:21.188Z,7.15
2023-03-13T18:46:50.149Z,7.17
2023-03-13T18:49:21.706Z,7.14
2023-03-13T18:51:50.748Z,7.05
2023-03-13T18:54:18.958Z,6.93
2023-03-13T18:56:48.468Z,6.74
2023-03-13T18:59:21.340Z,6.99
2023-03-13T19:01:49.611Z,6.83
2023-03-13T19:04:18.396Z,6.74
2023-03-13T19:06:49.111Z,6.76
2023-03-13T19:12:08.824Z,6.55
2023-03-13T19:14:38.252Z,6.04
2023-03-13T19:17:08.726Z,5.73
2023-03-13T19:19:36.682Z,6.37
2023-03-13T19:22:04.598Z,6.32
2023-03-13T19:24:32.539Z,6.24
2023-03-13T19:27:00.825Z,6.13
2023-03-13T19:29:29.849Z,6.14
2023-03-13T19:32:05.355Z,6.11
2023-03-13T19:34:33.325Z,6.01
2023-03-13T19:37:02.620Z,5.97
2023-03-13T19:39:32.888Z,5.75
2023-03-13T19:42:00.837Z,5.94
2023-03-13T19:44:30.684Z,6.05
2023-03-13T19:47:00.531Z,6.08
2023-03-13T19:49:31.185Z,6.06
2023-03-13T19:51:59.103Z,6.03
2023-03-13T19:54:29.644Z,5.91
2023-03-13T19:56:57.744Z,5.94
2023-03-13T19:59:27.795Z,5.88
2023-03-13T20:01:56.627Z,5.62
2023-03-13T20:04:28.056Z,5.77
2023-03-13T20:06:56.449Z,5.65
2023-03-13T20:09:25.487Z,5.66
2023-03-13T20:11:53.764Z,5.63
2023-03-13T20:14:21.793Z,5.29
2023-03-13T20:16:49.807Z,5.77
2023-03-13T20:19:18.659Z,5.85
2023-03-13T20:21:48.222Z,5.89
2023-03-13T20:24:16.644Z,5.71
2023-03-13T20:26:44.874Z,5.59
2023-03-13T20:29:12.748Z,5.37
2023-03-13T20:31:40.727Z,5.38
2023-03-13T20:34:09.526Z,5.41
2023-03-13T20:36:37.553Z,5.36
2023-03-13T20:39:06.987Z,5.29
2023-03-13T20:41:35.183Z,4.96
2023-03-13T20:44:04.539Z,4.64
2023-03-13T20:46:33.334Z,4.73
2023-03-13T20:49:03.375Z,5.13
2023-03-13T20:51:32.646Z,5.14
2023-03-13T20:54:00.880Z,5.11
2023-03-13T20:56:30.289Z,5.13
2023-03-13T20:58:58.331Z,5.01
2023-03-13T21:01:27.557Z,4.90
2023-03-13T21:03:55.777Z,4.82
2023-03-13T21:06:24.019Z,4.84
2023-03-13T21:08:54.034Z,4.69
2023-03-13T21:11:24.875Z,4.78
2023-03-13T21:13:54.175Z,4.70
2023-03-13T21:16:22.318Z,4.66
2023-03-13T21:18:52.994Z,4.63
2023-03-13T21:21:23.145Z,4.35
2023-03-13T21:23:52.165Z,4.50
2023-03-13T21:26:20.514Z,4.01
2023-03-13T21:28:48.629Z,4.52
2023-03-13T21:31:19.639Z,4.47
2023-03-13T21:33:48.475Z,4.41
2023-03-13T21:36:20.687Z,4.05
2023-03-13T21:38:49.887Z,4.38
2023-03-13T21:41:20.088Z,4.37
2023-03-13T21:43:50.894Z,4.38
2023-03-13T21:46:22.318Z,4.24
2023-03-13T21:48:50.547Z,4.31
2023-03-13T21:51:18.596Z,4.18
2023-03-13T21:53:46.488Z,4.28
2023-03-13T21:56:15.761Z,4.37
2023-03-13T21:58:44.196Z,4.34
2023-03-13T22:01:12.709Z,4.30
2023-03-13T22:03:42.615Z,4.47
2023-03-13T22:06:14.563Z,4.55
2023-03-13T22:08:42.592Z,4.47
2023-03-13T22:11:10.696Z,4.32
2023-03-13T22:13:38.616Z,4.39
2023-03-13T22:16:07.483Z,4.30
2023-03-13T22:18:35.512Z,4.37
2023-03-13T22:21:05.296Z,4.39
2023-03-13T22:23:33.185Z,4.32
2023-03-13T22:26:01.124Z,4.34
2023-03-13T22:28:29.039Z,4.45
2023-03-13T22:30:56.894Z,4.29
2023-03-13T22:33:24.756Z,4.39
2023-03-13T22:35:53.204Z,4.34
2023-03-13T22:38:22.783Z,4.47
2023-03-13T22:40:59.486Z,3.82
2023-03-13T22:43:27.690Z,3.94
2023-03-13T22:45:55.607Z,4.32
2023-03-13T22:48:23.637Z,4.32
2023-03-13T22:51:00.022Z,4.25
2023-03-13T22:53:29.261Z,4.20
2023-03-13T22:55:57.115Z,4.17
2023-03-13T22:58:25.112Z,3.89
2023-03-13T23:00:54.867Z,4.28
2023-03-13T23:03:23.394Z,4.24
2023-03-13T23:05:51.270Z,4.22
2023-03-13T23:08:19.198Z,4.24
2023-03-13T23:10:48.976Z,4.11
2023-03-13T23:13:17.276Z,4.09
2023-03-13T23:15:55.782Z,4.04
2023-03-13T23:18:24.397Z,4.06
2023-03-13T23:20:52.814Z,4.02
2023-03-13T23:23:21.054Z,4.01
2023-03-13T23:25:50.477Z,3.96
2023-03-13T23:28:18.419Z,3.95
2023-03-13T23:30:46.326Z,3.77
2023-03-13T23:33:14.167Z,3.98
2023-03-13T23:35:43.906Z,3.54
2023-03-13T23:38:12.204Z,3.84
2023-03-13T23:40:40.453Z,3.35
2023-03-13T23:43:09.682Z,3.91
2023-03-13T23:45:37.853Z,3.74
2023-03-13T23:48:06.050Z,3.47
2023-03-13T23:50:33.947Z,3.81
2023-03-13T23:53:01.788Z,3.73
2023-03-13T23:55:29.619Z,3.67
2023-03-13T23:57:57.510Z,3.62
